sensor_id;sensor_type;location;lat;lon;timestamp;temperature;humidity
3684;DHT22;1858;48.716;9.648;2022-07-22T00:00:25;18.40;99.90
3684;DHT22;1858;48.716;9.648;2022-07-22T00:02:53;18.50;99.90
3684;DHT22;1858;48.716;9.648;2022-07-22T00:05:21;18.50;99.90
3684;DHT22;1858;48.716;9.648;2022-07-22T00:07:49;18.50;99.90
3684;DHT22;1858;48.716;9.648;2022-07-22T00:10:16;18.50;99.90
3684;DHT22;1858;48.716;9.648;2022-07-22T00:12:44;18.50;99.90
3684;DHT22;1858;48.716;9.648;2022-07-22T00:15:11;18.30;99.90
3684;DHT22;1858;48.716;9.648;2022-07-22T00:17:40;18.40;99.90
3684;DHT22;1858;48.716;9.648;2022-07-22T00:20:08;18.30;99.90
3684;DHT22;1858;48.716;9.648;2022-07-22T00:22:36;18.20;99.90
3684;DHT22;1858;48.716;9.648;2022-07-22T00:25:06;18.20;99.90
3684;DHT22;1858;48.716;9.648;2022-07-22T00:27:55;18.30;99.90
3684;DHT22;1858;48.716;9.648;2022-07-22T00:30:22;18.20;99.90
3684;DHT22;1858;48.716;9.648;2022-07-22T00:32:50;18.20;99.90
3684;DHT22;1858;48.716;9.648;2022-07-22T00:35:17;18.20;99.90
3684;DHT22;1858;48.716;9.648;2022-07-22T00:37:45;18.20;99.90
3684;DHT22;1858;48.716;9.648;2022-07-22T00:40:13;18.20;99.90
3684;DHT22;1858;48.716;9.648;2022-07-22T00:42:40;18.20;99.90
3684;DHT22;1858;48.716;9.648;2022-07-22T00:45:08;18.20;99.90
3684;DHT22;1858;48.716;9.648;2022-07-22T00:47:36;18.20;99.90
3684;DHT22;1858;48.716;9.648;2022-07-22T00:50:04;18.10;99.90
3684;DHT22;1858;48.716;9.648;2022-07-22T00:52:32;18.10;99.90
3684;DHT22;1858;48.716;9.648;2022-07-22T00:54:59;18.10;99.90
3684;DHT22;1858;48.716;9.648;2022-07-22T00:57:27;18.10;99.90
3684;DHT22;1858;48.716;9.648;2022-07-22T01:05:29;17.90;99.90
3684;DHT22;1858;48.716;9.648;2022-07-22T01:07:56;17.80;99.90
3684;DHT22;1858;48.716;9.648;2022-07-22T01:13:11;17.70;99.90
3684;DHT22;1858;48.716;9.648;2022-07-22T01:15:38;17.60;99.90
3684;DHT22;1858;48.716;9.648;2022-07-22T01:23:40;17.50;1.00
3684;DHT22;1858;48.716;9.648;2022-07-22T01:26:08;17.50;1.00
3684;DHT22;1858;48.716;9.648;2022-07-22T01:31:22;17.50;1.00
3684;DHT22;1858;48.716;9.648;2022-07-22T01:33:50;17.40;1.00
3684;DHT22;1858;48.716;9.648;2022-07-22T01:36:17;17.40;1.00
3684;DHT22;1858;48.716;9.648;2022-07-22T01:38:45;17.50;1.00
3684;DHT22;1858;48.716;9.648;2022-07-22T01:41:13;17.50;1.00
3684;DHT22;1858;48.716;9.648;2022-07-22T01:43:40;17.50;1.00
3684;DHT22;1858;48.716;9.648;2022-07-22T01:46:08;17.50;1.00
3684;DHT22;1858;48.716;9.648;2022-07-22T01:48:36;17.50;1.00
3684;DHT22;1858;48.716;9.648;2022-07-22T01:51:03;17.50;1.00
3684;DHT22;1858;48.716;9.648;2022-07-22T01:53:31;17.40;99.90
3684;DHT22;1858;48.716;9.648;2022-07-22T01:56:19;17.30;1.00
3684;DHT22;1858;48.716;9.648;2022-07-22T01:58:47;17.20;1.00
3684;DHT22;1858;48.716;9.648;2022-07-22T02:01:15;17.10;1.00
3684;DHT22;1858;48.716;9.648;2022-07-22T02:06:29;17.10;1.00
3684;DHT22;1858;48.716;9.648;2022-07-22T02:08:57;17.00;1.00
3684;DHT22;1858;48.716;9.648;2022-07-22T02:11:25;17.00;1.00
3684;DHT22;1858;48.716;9.648;2022-07-22T02:13:53;16.90;1.00
3684;DHT22;1858;48.716;9.648;2022-07-22T02:16:20;17.00;1.00
3684;DHT22;1858;48.716;9.648;2022-07-22T02:18:48;16.90;1.00
3684;DHT22;1858;48.716;9.648;2022-07-22T02:21:17;16.90;1.00
3684;DHT22;1858;48.716;9.648;2022-07-22T02:23:45;16.90;1.00
3684;DHT22;1858;48.716;9.648;2022-07-22T02:26:12;16.80;1.00
3684;DHT22;1858;48.716;9.648;2022-07-22T02:28:40;16.80;1.00
3684;DHT22;1858;48.716;9.648;2022-07-22T02:31:07;16.90;1.00
3684;DHT22;1858;48.716;9.648;2022-07-22T02:33:35;16.80;1.00
3684;DHT22;1858;48.716;9.648;2022-07-22T02:36:03;16.80;1.00
3684;DHT22;1858;48.716;9.648;2022-07-22T02:41:17;16.70;1.00
3684;DHT22;1858;48.716;9.648;2022-07-22T02:43:45;16.70;1.00
3684;DHT22;1858;48.716;9.648;2022-07-22T02:46:12;16.70;1.00
3684;DHT22;1858;48.716;9.648;2022-07-22T02:48:40;16.60;4.50
3684;DHT22;1858;48.716;9.648;2022-07-22T02:51:07;16.50;57.50
3684;DHT22;1858;48.716;9.648;2022-07-22T02:53:35;16.60;99.90
3684;DHT22;1858;48.716;9.648;2022-07-22T02:56:03;16.50;99.90
3684;DHT22;1858;48.716;9.648;2022-07-22T02:58:31;16.60;77.30
3684;DHT22;1858;48.716;9.648;2022-07-22T03:00:58;16.50;99.90
3684;DHT22;1858;48.716;9.648;2022-07-22T03:03:26;16.60;99.90
3684;DHT22;1858;48.716;9.648;2022-07-22T03:05:54;16.50;80.60
3684;DHT22;1858;48.716;9.648;2022-07-22T03:08:21;16.40;58.20
3684;DHT22;1858;48.716;9.648;2022-07-22T03:10:49;16.40;99.90
3684;DHT22;1858;48.716;9.648;2022-07-22T03:13:17;16.30;99.90
3684;DHT22;1858;48.716;9.648;2022-07-22T03:15:44;16.30;99.90
3684;DHT22;1858;48.716;9.648;2022-07-22T03:18:12;16.20;99.90
3684;DHT22;1858;48.716;9.648;2022-07-22T03:20:39;16.20;99.90
3684;DHT22;1858;48.716;9.648;2022-07-22T03:23:07;16.20;99.90
3684;DHT22;1858;48.716;9.648;2022-07-22T03:25:35;16.20;99.90
3684;DHT22;1858;48.716;9.648;2022-07-22T03:28:03;16.10;99.90
3684;DHT22;1858;48.716;9.648;2022-07-22T03:30:30;16.20;99.90
3684;DHT22;1858;48.716;9.648;2022-07-22T03:35:45;16.00;1.00
3684;DHT22;1858;48.716;9.648;2022-07-22T03:38:13;16.00;1.00
3684;DHT22;1858;48.716;9.648;2022-07-22T03:40:50;16.00;1.00
3684;DHT22;1858;48.716;9.648;2022-07-22T03:43:18;16.00;1.00
3684;DHT22;1858;48.716;9.648;2022-07-22T03:45:46;16.00;1.00
3684;DHT22;1858;48.716;9.648;2022-07-22T03:48:14;16.00;1.00
3684;DHT22;1858;48.716;9.648;2022-07-22T03:50:47;16.00;1.00
3684;DHT22;1858;48.716;9.648;2022-07-22T03:53:11;16.00;1.00
3684;DHT22;1858;48.716;9.648;2022-07-22T03:55:38;16.00;1.00
3684;DHT22;1858;48.716;9.648;2022-07-22T03:58:06;16.00;1.00
3684;DHT22;1858;48.716;9.648;2022-07-22T04:00:35;16.00;1.00
3684;DHT22;1858;48.716;9.648;2022-07-22T04:03:02;16.00;1.00
3684;DHT22;1858;48.716;9.648;2022-07-22T04:05:30;16.10;1.00
3684;DHT22;1858;48.716;9.648;2022-07-22T04:08:03;16.10;99.90
3684;DHT22;1858;48.716;9.648;2022-07-22T04:10:28;16.10;99.90
3684;DHT22;1858;48.716;9.648;2022-07-22T04:12:56;16.10;99.90
3684;DHT22;1858;48.716;9.648;2022-07-22T04:15:24;16.10;99.90
3684;DHT22;1858;48.716;9.648;2022-07-22T04:17:52;16.20;99.90
3684;DHT22;1858;48.716;9.648;2022-07-22T04:20:20;16.20;99.90
3684;DHT22;1858;48.716;9.648;2022-07-22T04:22:48;16.30;99.90
3684;DHT22;1858;48.716;9.648;2022-07-22T04:25:15;16.50;99.90
3684;DHT22;1858;48.716;9.648;2022-07-22T04:27:46;16.50;99.90
3684;DHT22;1858;48.716;9.648;2022-07-22T04:30:16;16.40;99.90
3684;DHT22;1858;48.716;9.648;2022-07-22T04:32:47;16.40;99.90
3684;DHT22;1858;48.716;9.648;2022-07-22T04:35:14;16.40;99.90
3684;DHT22;1858;48.716;9.648;2022-07-22T04:37:42;16.50;99.90
3684;DHT22;1858;48.716;9.648;2022-07-22T04:40:16;16.50;99.90
3684;DHT22;1858;48.716;9.648;2022-07-22T04:42:45;16.50;99.90
3684;DHT22;1858;48.716;9.648;2022-07-22T04:45:13;16.60;99.90
3684;DHT22;1858;48.716;9.648;2022-07-22T04:47:43;16.70;99.90
3684;DHT22;1858;48.716;9.648;2022-07-22T04:50:14;16.70;99.90
3684;DHT22;1858;48.716;9.648;2022-07-22T04:52:42;16.80;99.90
3684;DHT22;1858;48.716;9.648;2022-07-22T04:55:09;16.90;99.90
3684;DHT22;1858;48.716;9.648;2022-07-22T04:57:40;17.00;99.90
3684;DHT22;1858;48.716;9.648;2022-07-22T05:00:09;17.10;99.90
3684;DHT22;1858;48.716;9.648;2022-07-22T05:02:37;17.30;99.90
3684;DHT22;1858;48.716;9.648;2022-07-22T05:05:05;17.30;19.20
3684;DHT22;1858;48.716;9.648;2022-07-22T05:07:33;17.40;1.00
3684;DHT22;1858;48.716;9.648;2022-07-22T05:10:01;17.40;1.00
3684;DHT22;1858;48.716;9.648;2022-07-22T05:15:15;17.60;1.00
3684;DHT22;1858;48.716;9.648;2022-07-22T05:20:34;17.90;99.90
3684;DHT22;1858;48.716;9.648;2022-07-22T05:23:03;18.10;99.90
3684;DHT22;1858;48.716;9.648;2022-07-22T05:25:31;18.20;99.90
3684;DHT22;1858;48.716;9.648;2022-07-22T05:27:58;18.40;99.90
3684;DHT22;1858;48.716;9.648;2022-07-22T05:30:26;18.60;99.90
3684;DHT22;1858;48.716;9.648;2022-07-22T05:32:54;18.60;99.90
3684;DHT22;1858;48.716;9.648;2022-07-22T05:35:22;18.70;99.90
3684;DHT22;1858;48.716;9.648;2022-07-22T05:37:49;18.80;99.90
3684;DHT22;1858;48.716;9.648;2022-07-22T05:40:17;18.90;99.90
3684;DHT22;1858;48.716;9.648;2022-07-22T05:42:45;19.00;73.60
3684;DHT22;1858;48.716;9.648;2022-07-22T05:45:12;19.10;39.70
3684;DHT22;1858;48.716;9.648;2022-07-22T05:47:40;19.20;1.50
3684;DHT22;1858;48.716;9.648;2022-07-22T05:50:08;19.20;1.00
3684;DHT22;1858;48.716;9.648;2022-07-22T05:52:36;19.30;1.00
3684;DHT22;1858;48.716;9.648;2022-07-22T05:55:05;19.40;1.00
3684;DHT22;1858;48.716;9.648;2022-07-22T05:57:33;19.50;1.00
3684;DHT22;1858;48.716;9.648;2022-07-22T06:00:07;19.70;1.00
3684;DHT22;1858;48.716;9.648;2022-07-22T06:02:31;19.70;1.00
3684;DHT22;1858;48.716;9.648;2022-07-22T06:04:58;19.80;1.00
3684;DHT22;1858;48.716;9.648;2022-07-22T06:07:27;20.00;1.00
3684;DHT22;1858;48.716;9.648;2022-07-22T06:09:55;20.10;1.00
3684;DHT22;1858;48.716;9.648;2022-07-22T06:12:22;20.40;1.00
3684;DHT22;1858;48.716;9.648;2022-07-22T06:14:53;20.50;1.00
3684;DHT22;1858;48.716;9.648;2022-07-22T06:17:22;20.70;1.00
3684;DHT22;1858;48.716;9.648;2022-07-22T06:19:52;20.80;99.90
3684;DHT22;1858;48.716;9.648;2022-07-22T06:25:07;21.00;99.90
3684;DHT22;1858;48.716;9.648;2022-07-22T06:27:36;21.10;99.90
3684;DHT22;1858;48.716;9.648;2022-07-22T06:30:04;21.20;99.90
3684;DHT22;1858;48.716;9.648;2022-07-22T06:32:32;21.50;99.90
3684;DHT22;1858;48.716;9.648;2022-07-22T06:34:59;21.60;99.90
3684;DHT22;1858;48.716;9.648;2022-07-22T06:40:15;22.30;99.90
3684;DHT22;1858;48.716;9.648;2022-07-22T06:42:45;23.00;99.90
3684;DHT22;1858;48.716;9.648;2022-07-22T06:45:13;24.10;99.90
3684;DHT22;1858;48.716;9.648;2022-07-22T06:47:41;25.50;17.20
3684;DHT22;1858;48.716;9.648;2022-07-22T06:50:09;26.10;1.00
3684;DHT22;1858;48.716;9.648;2022-07-22T06:52:40;26.60;1.00
3684;DHT22;1858;48.716;9.648;2022-07-22T06:55:10;27.70;1.00
3684;DHT22;1858;48.716;9.648;2022-07-22T06:57:41;29.40;1.00
3684;DHT22;1858;48.716;9.648;2022-07-22T07:00:12;30.70;1.00
3684;DHT22;1858;48.716;9.648;2022-07-22T07:02:36;32.20;1.00
3684;DHT22;1858;48.716;9.648;2022-07-22T07:05:04;33.40;1.00
3684;DHT22;1858;48.716;9.648;2022-07-22T07:07:32;34.30;99.90
3684;DHT22;1858;48.716;9.648;2022-07-22T07:10:01;34.60;99.90
3684;DHT22;1858;48.716;9.648;2022-07-22T07:12:29;35.60;99.90
3684;DHT22;1858;48.716;9.648;2022-07-22T07:17:44;38.00;99.90
3684;DHT22;1858;48.716;9.648;2022-07-22T07:20:18;38.60;99.90
3684;DHT22;1858;48.716;9.648;2022-07-22T07:22:48;39.30;99.90
3684;DHT22;1858;48.716;9.648;2022-07-22T07:25:17;39.60;99.90
3684;DHT22;1858;48.716;9.648;2022-07-22T07:27:45;40.30;99.90
3684;DHT22;1858;48.716;9.648;2022-07-22T07:30:13;40.90;99.90
3684;DHT22;1858;48.716;9.648;2022-07-22T07:32:41;41.30;99.90
3684;DHT22;1858;48.716;9.648;2022-07-22T07:35:09;42.00;99.90
3684;DHT22;1858;48.716;9.648;2022-07-22T07:37:38;42.60;99.90
3684;DHT22;1858;48.716;9.648;2022-07-22T07:40:06;43.30;99.90
3684;DHT22;1858;48.716;9.648;2022-07-22T07:42:34;43.70;99.90
3684;DHT22;1858;48.716;9.648;2022-07-22T07:45:02;43.60;99.90
3684;DHT22;1858;48.716;9.648;2022-07-22T07:47:31;43.40;99.90
3684;DHT22;1858;48.716;9.648;2022-07-22T07:49:58;43.10;99.90
3684;DHT22;1858;48.716;9.648;2022-07-22T07:52:28;42.50;99.90
3684;DHT22;1858;48.716;9.648;2022-07-22T07:54:56;41.90;99.90
3684;DHT22;1858;48.716;9.648;2022-07-22T07:57:24;40.90;99.90
3684;DHT22;1858;48.716;9.648;2022-07-22T07:59:57;40.70;99.90
3684;DHT22;1858;48.716;9.648;2022-07-22T08:02:22;40.70;99.90
3684;DHT22;1858;48.716;9.648;2022-07-22T08:04:51;40.60;99.90
3684;DHT22;1858;48.716;9.648;2022-07-22T08:07:18;41.20;99.90
3684;DHT22;1858;48.716;9.648;2022-07-22T08:09:46;42.30;99.90
3684;DHT22;1858;48.716;9.648;2022-07-22T08:12:14;42.60;99.90
3684;DHT22;1858;48.716;9.648;2022-07-22T08:14:44;42.40;99.90
3684;DHT22;1858;48.716;9.648;2022-07-22T08:17:12;42.00;99.90
3684;DHT22;1858;48.716;9.648;2022-07-22T08:19:42;42.70;99.90
3684;DHT22;1858;48.716;9.648;2022-07-22T08:22:16;42.80;99.90
3684;DHT22;1858;48.716;9.648;2022-07-22T08:24:42;43.20;99.90
3684;DHT22;1858;48.716;9.648;2022-07-22T08:27:13;42.80;99.90
3684;DHT22;1858;48.716;9.648;2022-07-22T08:29:41;42.30;99.90
3684;DHT22;1858;48.716;9.648;2022-07-22T08:32:09;42.50;99.90
3684;DHT22;1858;48.716;9.648;2022-07-22T08:34:39;42.30;99.90
3684;DHT22;1858;48.716;9.648;2022-07-22T08:37:07;42.30;99.90
3684;DHT22;1858;48.716;9.648;2022-07-22T08:39:37;42.80;99.90
3684;DHT22;1858;48.716;9.648;2022-07-22T08:42:10;43.90;99.90
3684;DHT22;1858;48.716;9.648;2022-07-22T08:44:34;43.50;99.90
3684;DHT22;1858;48.716;9.648;2022-07-22T08:47:02;43.70;99.90
3684;DHT22;1858;48.716;9.648;2022-07-22T08:49:30;44.00;99.90
3684;DHT22;1858;48.716;9.648;2022-07-22T08:51:58;44.50;99.90
3684;DHT22;1858;48.716;9.648;2022-07-22T08:54:26;43.80;99.90
3684;DHT22;1858;48.716;9.648;2022-07-22T08:56:53;44.10;99.90
3684;DHT22;1858;48.716;9.648;2022-07-22T08:59:27;43.90;99.90
3684;DHT22;1858;48.716;9.648;2022-07-22T09:02:07;43.80;99.90
3684;DHT22;1858;48.716;9.648;2022-07-22T09:04:58;44.70;99.90
3684;DHT22;1858;48.716;9.648;2022-07-22T09:07:45;45.70;99.90
3684;DHT22;1858;48.716;9.648;2022-07-22T09:10:19;45.50;99.90
3684;DHT22;1858;48.716;9.648;2022-07-22T09:12:53;44.90;99.90
3684;DHT22;1858;48.716;9.648;2022-07-22T09:15:35;44.60;99.90
3684;DHT22;1858;48.716;9.648;2022-07-22T09:17:54;44.80;99.90
3684;DHT22;1858;48.716;9.648;2022-07-22T09:20:22;45.20;99.90
3684;DHT22;1858;48.716;9.648;2022-07-22T09:23:12;45.70;99.90
3684;DHT22;1858;48.716;9.648;2022-07-22T09:25:40;46.00;99.90
3684;DHT22;1858;48.716;9.648;2022-07-22T09:30:48;45.00;99.90
3684;DHT22;1858;48.716;9.648;2022-07-22T09:33:08;46.10;99.90
3684;DHT22;1858;48.716;9.648;2022-07-22T09:35:37;47.10;99.90
3684;DHT22;1858;48.716;9.648;2022-07-22T09:38:10;46.80;99.90
3684;DHT22;1858;48.716;9.648;2022-07-22T09:43:35;48.10;99.90
3684;DHT22;1858;48.716;9.648;2022-07-22T09:46:03;48.70;99.90
3684;DHT22;1858;48.716;9.648;2022-07-22T09:48:32;48.00;99.90
3684;DHT22;1858;48.716;9.648;2022-07-22T09:51:01;48.40;99.90
3684;DHT22;1858;48.716;9.648;2022-07-22T09:53:30;48.30;99.90
3684;DHT22;1858;48.716;9.648;2022-07-22T09:55:58;48.60;99.90
3684;DHT22;1858;48.716;9.648;2022-07-22T09:58:26;49.20;99.90
3684;DHT22;1858;48.716;9.648;2022-07-22T10:00:55;49.40;99.90
3684;DHT22;1858;48.716;9.648;2022-07-22T10:03:27;50.00;99.90
3684;DHT22;1858;48.716;9.648;2022-07-22T10:05:56;50.10;99.90
3684;DHT22;1858;48.716;9.648;2022-07-22T10:08:29;49.50;99.90
3684;DHT22;1858;48.716;9.648;2022-07-22T10:11:02;49.40;99.90
3684;DHT22;1858;48.716;9.648;2022-07-22T10:13:31;49.20;99.90
3684;DHT22;1858;48.716;9.648;2022-07-22T10:16:01;49.20;99.90
3684;DHT22;1858;48.716;9.648;2022-07-22T10:18:29;49.30;99.90
3684;DHT22;1858;48.716;9.648;2022-07-22T10:21:05;48.80;99.90
3684;DHT22;1858;48.716;9.648;2022-07-22T10:23:29;49.00;99.90
3684;DHT22;1858;48.716;9.648;2022-07-22T10:26:01;49.60;99.90
3684;DHT22;1858;48.716;9.648;2022-07-22T10:28:33;49.20;99.90
3684;DHT22;1858;48.716;9.648;2022-07-22T10:31:35;48.70;99.90
3684;DHT22;1858;48.716;9.648;2022-07-22T10:33:36;48.90;99.90
3684;DHT22;1858;48.716;9.648;2022-07-22T10:36:05;48.80;99.90
3684;DHT22;1858;48.716;9.648;2022-07-22T10:38:33;49.10;99.90
3684;DHT22;1858;48.716;9.648;2022-07-22T10:41:02;49.30;99.90
3684;DHT22;1858;48.716;9.648;2022-07-22T10:43:30;49.80;99.90
3684;DHT22;1858;48.716;9.648;2022-07-22T10:46:05;49.60;99.90
3684;DHT22;1858;48.716;9.648;2022-07-22T10:54:00;49.70;99.90
3684;DHT22;1858;48.716;9.648;2022-07-22T10:56:48;50.10;99.90
3684;DHT22;1858;48.716;9.648;2022-07-22T10:59:16;50.50;99.90
3684;DHT22;1858;48.716;9.648;2022-07-22T11:02:06;50.10;99.90
3684;DHT22;1858;48.716;9.648;2022-07-22T11:04:33;50.00;99.90
3684;DHT22;1858;48.716;9.648;2022-07-22T11:07:02;49.10;99.90
3684;DHT22;1858;48.716;9.648;2022-07-22T11:09:31;49.50;99.90
3684;DHT22;1858;48.716;9.648;2022-07-22T11:12:00;48.80;99.90
3684;DHT22;1858;48.716;9.648;2022-07-22T11:14:33;48.60;99.90
3684;DHT22;1858;48.716;9.648;2022-07-22T11:17:08;48.40;99.90
3684;DHT22;1858;48.716;9.648;2022-07-22T11:19:39;46.80;99.90
3684;DHT22;1858;48.716;9.648;2022-07-22T11:22:12;44.90;99.90
3684;DHT22;1858;48.716;9.648;2022-07-22T11:24:48;43.10;99.90
3684;DHT22;1858;48.716;9.648;2022-07-22T11:27:18;42.10;99.90
3684;DHT22;1858;48.716;9.648;2022-07-22T11:29:50;41.10;99.90
3684;DHT22;1858;48.716;9.648;2022-07-22T11:32:21;40.60;99.90
3684;DHT22;1858;48.716;9.648;2022-07-22T11:34:52;39.80;99.90
3684;DHT22;1858;48.716;9.648;2022-07-22T11:37:23;39.30;99.90
3684;DHT22;1858;48.716;9.648;2022-07-22T11:39:58;38.90;99.90
3684;DHT22;1858;48.716;9.648;2022-07-22T11:42:29;38.60;99.90
3684;DHT22;1858;48.716;9.648;2022-07-22T11:44:58;38.40;99.90
3684;DHT22;1858;48.716;9.648;2022-07-22T11:47:27;38.00;99.90
3684;DHT22;1858;48.716;9.648;2022-07-22T11:49:55;37.70;99.90
3684;DHT22;1858;48.716;9.648;2022-07-22T11:52:24;37.30;99.90
3684;DHT22;1858;48.716;9.648;2022-07-22T11:54:54;37.00;99.90
3684;DHT22;1858;48.716;9.648;2022-07-22T11:57:24;36.60;99.90
3684;DHT22;1858;48.716;9.648;2022-07-22T11:59:52;36.50;99.90
3684;DHT22;1858;48.716;9.648;2022-07-22T12:02:22;36.20;99.90
3684;DHT22;1858;48.716;9.648;2022-07-22T12:04:51;36.00;99.90
3684;DHT22;1858;48.716;9.648;2022-07-22T12:07:20;35.80;99.90
3684;DHT22;1858;48.716;9.648;2022-07-22T12:09:49;35.80;99.90
3684;DHT22;1858;48.716;9.648;2022-07-22T12:12:17;36.00;99.90
3684;DHT22;1858;48.716;9.648;2022-07-22T12:14:48;35.80;99.90
3684;DHT22;1858;48.716;9.648;2022-07-22T12:17:16;35.70;99.90
3684;DHT22;1858;48.716;9.648;2022-07-22T12:19:45;35.40;99.90
3684;DHT22;1858;48.716;9.648;2022-07-22T12:22:21;35.20;99.90
3684;DHT22;1858;48.716;9.648;2022-07-22T12:25:01;35.40;99.90
3684;DHT22;1858;48.716;9.648;2022-07-22T12:27:32;35.40;99.90
3684;DHT22;1858;48.716;9.648;2022-07-22T12:30:11;35.30;99.90
3684;DHT22;1858;48.716;9.648;2022-07-22T12:32:33;35.20;99.90
3684;DHT22;1858;48.716;9.648;2022-07-22T12:35:23;35.20;99.90
3684;DHT22;1858;48.716;9.648;2022-07-22T12:37:55;34.90;99.90
3684;DHT22;1858;48.716;9.648;2022-07-22T12:40:26;34.80;99.90
3684;DHT22;1858;48.716;9.648;2022-07-22T12:43:06;34.80;99.90
3684;DHT22;1858;48.716;9.648;2022-07-22T12:45:36;34.80;99.90
3684;DHT22;1858;48.716;9.648;2022-07-22T12:48:12;34.80;99.90
3684;DHT22;1858;48.716;9.648;2022-07-22T12:53:36;34.80;99.90
3684;DHT22;1858;48.716;9.648;2022-07-22T12:56:02;34.70;99.90
3684;DHT22;1858;48.716;9.648;2022-07-22T12:58:32;34.60;99.90
3684;DHT22;1858;48.716;9.648;2022-07-22T13:01:01;34.40;99.90
3684;DHT22;1858;48.716;9.648;2022-07-22T13:03:30;34.20;99.90
3684;DHT22;1858;48.716;9.648;2022-07-22T13:06:02;34.20;99.90
3684;DHT22;1858;48.716;9.648;2022-07-22T13:08:34;34.10;99.90
3684;DHT22;1858;48.716;9.648;2022-07-22T13:11:02;34.10;99.90
3684;DHT22;1858;48.716;9.648;2022-07-22T13:13:30;34.00;99.90
3684;DHT22;1858;48.716;9.648;2022-07-22T13:16:00;34.10;99.90
3684;DHT22;1858;48.716;9.648;2022-07-22T13:18:30;34.10;99.90
3684;DHT22;1858;48.716;9.648;2022-07-22T13:20:59;34.10;99.90
3684;DHT22;1858;48.716;9.648;2022-07-22T13:23:30;34.00;99.90
3684;DHT22;1858;48.716;9.648;2022-07-22T13:26:01;34.20;99.90
3684;DHT22;1858;48.716;9.648;2022-07-22T13:28:30;34.20;99.90
3684;DHT22;1858;48.716;9.648;2022-07-22T13:30:59;34.10;99.90
3684;DHT22;1858;48.716;9.648;2022-07-22T13:33:28;34.00;99.90
3684;DHT22;1858;48.716;9.648;2022-07-22T13:35:56;34.20;99.90
3684;DHT22;1858;48.716;9.648;2022-07-22T13:41:14;34.30;99.90
3684;DHT22;1858;48.716;9.648;2022-07-22T13:43:47;34.40;99.90
3684;DHT22;1858;48.716;9.648;2022-07-22T13:46:17;34.40;99.90
3684;DHT22;1858;48.716;9.648;2022-07-22T13:48:46;34.30;99.90
3684;DHT22;1858;48.716;9.648;2022-07-22T13:51:15;34.30;99.90
3684;DHT22;1858;48.716;9.648;2022-07-22T13:53:45;34.30;99.90
3684;DHT22;1858;48.716;9.648;2022-07-22T13:56:14;34.20;99.90
3684;DHT22;1858;48.716;9.648;2022-07-22T13:58:42;34.20;99.90
3684;DHT22;1858;48.716;9.648;2022-07-22T14:01:12;34.00;99.90
3684;DHT22;1858;48.716;9.648;2022-07-22T14:03:41;34.00;99.90
3684;DHT22;1858;48.716;9.648;2022-07-22T14:06:09;34.00;99.90
3684;DHT22;1858;48.716;9.648;2022-07-22T14:08:38;34.00;99.90
3684;DHT22;1858;48.716;9.648;2022-07-22T14:11:13;33.90;99.90
3684;DHT22;1858;48.716;9.648;2022-07-22T14:13:42;33.80;99.90
3684;DHT22;1858;48.716;9.648;2022-07-22T14:16:10;33.80;99.90
3684;DHT22;1858;48.716;9.648;2022-07-22T14:18:57;33.70;99.90
3684;DHT22;1858;48.716;9.648;2022-07-22T14:21:28;33.70;99.90
3684;DHT22;1858;48.716;9.648;2022-07-22T14:23:57;33.70;99.90
3684;DHT22;1858;48.716;9.648;2022-07-22T14:26:26;33.70;99.90
3684;DHT22;1858;48.716;9.648;2022-07-22T14:28:59;33.70;99.90
3684;DHT22;1858;48.716;9.648;2022-07-22T14:31:37;33.60;99.90
3684;DHT22;1858;48.716;9.648;2022-07-22T14:34:01;33.40;99.90
3684;DHT22;1858;48.716;9.648;2022-07-22T14:36:30;33.30;99.90
3684;DHT22;1858;48.716;9.648;2022-07-22T14:39:01;33.30;99.90
3684;DHT22;1858;48.716;9.648;2022-07-22T14:41:29;33.30;99.90
3684;DHT22;1858;48.716;9.648;2022-07-22T14:44:17;33.20;99.90
3684;DHT22;1858;48.716;9.648;2022-07-22T14:46:46;33.20;99.90
3684;DHT22;1858;48.716;9.648;2022-07-22T14:49:15;33.20;99.90
3684;DHT22;1858;48.716;9.648;2022-07-22T14:51:44;33.20;99.90
3684;DHT22;1858;48.716;9.648;2022-07-22T14:54:14;33.20;99.90
3684;DHT22;1858;48.716;9.648;2022-07-22T14:56:46;33.30;99.90
3684;DHT22;1858;48.716;9.648;2022-07-22T14:59:15;33.40;99.90
3684;DHT22;1858;48.716;9.648;2022-07-22T15:01:43;33.50;99.90
3684;DHT22;1858;48.716;9.648;2022-07-22T15:04:12;33.70;99.90
3684;DHT22;1858;48.716;9.648;2022-07-22T15:06:41;33.70;99.90
3684;DHT22;1858;48.716;9.648;2022-07-22T15:09:09;33.80;99.90
3684;DHT22;1858;48.716;9.648;2022-07-22T15:11:38;33.80;99.90
3684;DHT22;1858;48.716;9.648;2022-07-22T15:14:07;33.70;99.90
3684;DHT22;1858;48.716;9.648;2022-07-22T15:16:36;33.70;99.90
3684;DHT22;1858;48.716;9.648;2022-07-22T15:19:04;33.70;99.90
3684;DHT22;1858;48.716;9.648;2022-07-22T15:21:33;33.70;99.90
3684;DHT22;1858;48.716;9.648;2022-07-22T15:24:01;33.50;99.90
3684;DHT22;1858;48.716;9.648;2022-07-22T15:26:30;33.50;99.90
3684;DHT22;1858;48.716;9.648;2022-07-22T15:31:52;33.40;99.90
3684;DHT22;1858;48.716;9.648;2022-07-22T15:34:21;33.30;99.90
3684;DHT22;1858;48.716;9.648;2022-07-22T15:36:49;33.40;99.90
3684;DHT22;1858;48.716;9.648;2022-07-22T15:39:17;33.50;99.90
3684;DHT22;1858;48.716;9.648;2022-07-22T15:41:46;33.40;99.90
3684;DHT22;1858;48.716;9.648;2022-07-22T15:44:15;33.50;99.90
3684;DHT22;1858;48.716;9.648;2022-07-22T15:46:43;33.40;99.90
3684;DHT22;1858;48.716;9.648;2022-07-22T15:49:18;33.40;99.90
3684;DHT22;1858;48.716;9.648;2022-07-22T15:51:48;33.50;99.90
3684;DHT22;1858;48.716;9.648;2022-07-22T15:54:17;33.30;99.90
3684;DHT22;1858;48.716;9.648;2022-07-22T15:56:47;33.30;99.90
3684;DHT22;1858;48.716;9.648;2022-07-22T15:59:17;33.30;99.90
3684;DHT22;1858;48.716;9.648;2022-07-22T16:02:20;33.20;99.90
3684;DHT22;1858;48.716;9.648;2022-07-22T16:04:49;33.10;99.90
3684;DHT22;1858;48.716;9.648;2022-07-22T16:07:21;33.10;99.90
3684;DHT22;1858;48.716;9.648;2022-07-22T16:09:50;33.00;99.90
3684;DHT22;1858;48.716;9.648;2022-07-22T16:12:19;33.00;99.90
3684;DHT22;1858;48.716;9.648;2022-07-22T16:14:47;32.90;99.90
3684;DHT22;1858;48.716;9.648;2022-07-22T16:17:16;32.90;99.90
3684;DHT22;1858;48.716;9.648;2022-07-22T16:19:44;32.80;99.90
3684;DHT22;1858;48.716;9.648;2022-07-22T16:22:14;32.80;99.90
3684;DHT22;1858;48.716;9.648;2022-07-22T16:24:43;32.70;99.90
3684;DHT22;1858;48.716;9.648;2022-07-22T16:27:13;32.80;99.90
3684;DHT22;1858;48.716;9.648;2022-07-22T16:29:52;32.70;99.90
3684;DHT22;1858;48.716;9.648;2022-07-22T16:32:23;32.70;99.90
3684;DHT22;1858;48.716;9.648;2022-07-22T16:34:52;32.70;99.90
3684;DHT22;1858;48.716;9.648;2022-07-22T16:37:22;32.80;99.90
3684;DHT22;1858;48.716;9.648;2022-07-22T16:39:52;32.70;99.90
3684;DHT22;1858;48.716;9.648;2022-07-22T16:42:23;32.60;99.90
3684;DHT22;1858;48.716;9.648;2022-07-22T16:44:57;32.40;99.90
3684;DHT22;1858;48.716;9.648;2022-07-22T16:47:27;32.20;99.90
3684;DHT22;1858;48.716;9.648;2022-07-22T16:49:57;32.10;99.90
3684;DHT22;1858;48.716;9.648;2022-07-22T16:52:30;32.10;99.90
3684;DHT22;1858;48.716;9.648;2022-07-22T16:54:59;32.00;99.90
3684;DHT22;1858;48.716;9.648;2022-07-22T16:57:34;32.00;99.90
3684;DHT22;1858;48.716;9.648;2022-07-22T17:00:00;32.00;99.90
3684;DHT22;1858;48.716;9.648;2022-07-22T17:02:28;32.00;99.90
3684;DHT22;1858;48.716;9.648;2022-07-22T17:04:57;32.10;99.90
3684;DHT22;1858;48.716;9.648;2022-07-22T17:07:26;32.20;99.90
3684;DHT22;1858;48.716;9.648;2022-07-22T17:09:55;32.20;99.90
3684;DHT22;1858;48.716;9.648;2022-07-22T17:12:25;32.10;99.90
3684;DHT22;1858;48.716;9.648;2022-07-22T17:15:01;32.10;99.90
3684;DHT22;1858;48.716;9.648;2022-07-22T17:17:30;32.20;99.90